Lazarevskaya, Russia
Current Conditions -  °F | °C
As of 5:00 PM on Saturday 20 Dec 2014 (Local Time) from URSS Reporting Station
Broken Clouds Broken Clouds  
Wind Chill: 52°   Ceiling: 23000
Heat Index: 52°   Visibility: 6mi
Dew Point: 43°   Wind: 0mph
Humidity: 71%   Direction: NA
Pressure: 30.12"   Gusts: NA
Location:  43.91°N, 39.33°E
Report Text: URSS 201400Z 00000MPS 9999 FEW023 BKN230 11/06 Q1020 NOSIG RMKR02/00000MPS MT OBSC QFE764 06000070 02//////
Loading
Personal Weather Stations






























Interactive Weather Map New forecast layout! Learn more

10-Day Weather Forecast

Advertisements
Track Severe Weather on mobile